Laredo, Missouri
Current Conditions -  °F | °C
As of 6:55 PM on Thursday 18 Dec 2014 (Local Time) from KIRK Reporting Station
Overcast Overcast  
Wind Chill: -5°   Ceiling: 1200
Heat Index: -2°   Visibility: 9mi
Dew Point: -3°   Wind: 6mph
Humidity: 92%   Direction: 70°ENE
Pressure: 30.25"   Gusts: NA
Location:  40.03°N, 93.45°W
Report Text: KIRK 190055Z AUTO 07005KT 9SM OVC012 M02/M03 A3025 RMK AO2 SLP261 T10171028
Loading
Personal Weather Stations






























Interactive Weather Map New forecast layout! Learn more

10-Day Weather Forecast

Advertisements
Track Severe Weather on mobile